Time;durP1;ratioP1;P1;durP2;ratioP2;P2;SDS_P1;SDS_P2;PMS_P1;PMS_P2;Temp;Humidity;BMP_temperature;BMP_pressure;BME280_temperature;BME280_humidity;BME280_pressure;Samples;Min_cycle;Max_cycle;Signal;HPM_P1;HPM_P2
2022/08/24 00:01:20;;;;;;;10.13;7.30;;;;;;;;;;5047751;28;20197;-73
2022/08/24 00:03:47;;;;;;;14.00;7.80;;;;;;;;;;5047923;28;20187;-73
2022/08/24 00:06:21;;;;;;;13.87;8.87;;;;;;;;;;5046630;28;20241;-73
2022/08/24 00:08:48;;;;;;;16.10;9.37;;;;;;;;;;5046553;28;20183;-73
2022/08/24 00:11:15;;;;;;;12.63;8.63;;;;;;;;;;5049342;28;20191;-73
2022/08/24 00:13:43;;;;;;;15.80;9.37;;;;;;;;;;5051275;28;20253;-73
2022/08/24 00:16:10;;;;;;;19.77;10.43;;;;;;;;;;5050486;28;20286;-73
2022/08/24 00:18:38;;;;;;;19.10;11.43;;;;;;;;;;5033560;28;20657;-73
2022/08/24 00:21:06;;;;;;;23.13;12.97;;;;;;;;;;5050099;28;20195;-73
2022/08/24 00:23:53;;;;;;;26.60;12.93;;;;;;;;;;5051405;28;20291;-73
2022/08/24 00:26:20;;;;;;;23.63;13.70;;;;;;;;;;5050256;28;20277;-73
2022/08/24 00:28:55;;;;;;;28.80;14.27;;;;;;;;;;5034517;28;21036;-73
2022/08/24 00:31:23;;;;;;;21.83;12.90;;;;;;;;;;5048296;28;20846;-74
2022/08/24 00:33:51;;;;;;;25.40;13.10;;;;;;;;;;5052788;28;20206;-73
2022/08/24 00:36:20;;;;;;;21.43;12.10;;;;;;;;;;5053410;28;20217;-73
2022/08/24 00:38:47;;;;;;;20.37;13.17;;;;;;;;;;5033191;28;20267;-73
2022/08/24 00:41:14;;;;;;;24.67;12.40;;;;;;;;;;5048469;28;20654;-73
2022/08/24 00:43:53;;;;;;;21.60;12.83;;;;;;;;;;5050789;28;20183;-73
2022/08/24 00:46:48;;;;;;;21.10;12.60;;;;;;;;;;5051339;28;20225;-73
2022/08/24 00:49:35;;;;;;;20.13;12.27;;;;;;;;;;5019067;28;20634;-73
2022/08/24 00:52:09;;;;;;;19.77;12.53;;;;;;;;;;5032739;28;20209;-73
2022/08/24 00:54:40;;;;;;;23.63;12.37;;;;;;;;;;5050337;28;20226;-74
2022/08/24 00:57:27;;;;;;;20.63;11.90;;;;;;;;;;5050697;28;20175;-73
2022/08/24 00:59:54;;;;;;;20.23;12.23;;;;;;;;;;5015813;28;20191;-73
2022/08/24 01:02:26;;;;;;;16.17;11.60;;;;;;;;;;5032810;28;20227;-74
2022/08/24 01:04:54;;;;;;;17.70;12.40;;;;;;;;;;5050742;28;20701;-74
2022/08/24 01:07:23;;;;;;;23.47;12.37;;;;;;;;;;5032765;28;20601;-74
2022/08/24 01:09:50;;;;;;;19.30;11.70;;;;;;;;;;5049227;28;20716;-73
2022/08/24 01:12:17;;;;;;;21.13;11.87;;;;;;;;;;5049487;28;20187;-74
2022/08/24 01:14:45;;;;;;;22.63;11.90;;;;;;;;;;5050125;28;20258;-74
2022/08/24 01:20:10;;;;;;;22.63;12.33;;;;;;;;;;5050673;28;20713;-73
2022/08/24 01:22:40;;;;;;;20.53;13.00;;;;;;;;;;5049997;28;20281;-73
2022/08/24 01:25:08;;;;;;;19.30;12.37;;;;;;;;;;5048026;28;20191;-73
2022/08/24 01:27:35;;;;;;;20.47;12.60;;;;;;;;;;5032355;28;20798;-73
2022/08/24 01:30:05;;;;;;;25.70;12.23;;;;;;;;;;5049998;28;20182;-74
2022/08/24 01:32:57;;;;;;;20.30;11.47;;;;;;;;;;5032185;28;20252;-74
2022/08/24 01:35:23;;;;;;;16.97;12.10;;;;;;;;;;5015644;28;20222;-73
2022/08/24 01:37:51;;;;;;;18.93;12.37;;;;;;;;;;5030796;28;20194;-74
2022/08/24 01:40:19;;;;;;;19.03;12.50;;;;;;;;;;5037050;28;20226;-74
2022/08/24 01:42:48;;;;;;;19.87;12.73;;;;;;;;;;5031886;28;20195;-73
2022/08/24 01:45:17;;;;;;;17.50;11.87;;;;;;;;;;5049613;28;20627;-74
2022/08/24 01:47:45;;;;;;;20.17;12.23;;;;;;;;;;5049594;28;20209;-73
2022/08/24 01:50:13;;;;;;;15.67;11.93;;;;;;;;;;5031814;28;20544;-74
2022/08/24 01:52:40;;;;;;;18.27;12.07;;;;;;;;;;5032160;28;20194;-74
2022/08/24 01:55:30;;;;;;;16.20;11.57;;;;;;;;;;5031003;28;20182;-74
2022/08/24 01:57:58;;;;;;;17.57;12.33;;;;;;;;;;5031689;28;20199;-74
2022/08/24 02:00:27;;;;;;;19.43;12.63;;;;;;;;;;5048313;28;20187;-74
2022/08/24 02:02:55;;;;;;;19.97;14.33;;;;;;;;;;5049787;28;20309;-74
2022/08/24 02:05:24;;;;;;;21.97;14.23;;;;;;;;;;5031408;28;20201;-74
2022/08/24 02:07:51;;;;;;;23.63;15.50;;;;;;;;;;5031898;28;20199;-73
2022/08/24 02:10:19;;;;;;;22.83;15.00;;;;;;;;;;5031316;28;20226;-74
2022/08/24 02:12:56;;;;;;;23.93;15.40;;;;;;;;;;5025818;28;20219;-74
2022/08/24 02:15:28;;;;;;;21.97;15.20;;;;;;;;;;5046075;28;20197;-73
2022/08/24 02:18:01;;;;;;;20.90;13.97;;;;;;;;;;5031380;28;20603;-74
2022/08/24 02:20:29;;;;;;;22.83;14.60;;;;;;;;;;5049117;28;20546;-73
2022/08/24 02:22:57;;;;;;;21.00;14.83;;;;;;;;;;5030899;28;20190;-73
2022/08/24 02:25:24;;;;;;;19.67;13.23;;;;;;;;;;5017819;28;20311;-73
2022/08/24 02:27:52;;;;;;;19.07;13.37;;;;;;;;;;5016658;28;20187;-73
2022/08/24 02:30:19;;;;;;;18.37;12.60;;;;;;;;;;5028941;28;20172;-74
2022/08/24 02:32:47;;;;;;;20.43;12.17;;;;;;;;;;5047379;28;20270;-74
2022/08/24 02:35:14;;;;;;;18.43;12.33;;;;;;;;;;5047591;28;20199;-74
2022/08/24 02:37:41;;;;;;;15.37;12.67;;;;;;;;;;5049223;28;20225;-74
2022/08/24 02:40:13;;;;;;;19.60;13.40;;;;;;;;;;5047275;28;20190;-75
2022/08/24 02:42:40;;;;;;;19.10;13.17;;;;;;;;;;5014113;28;20658;-74
2022/08/24 02:45:08;;;;;;;20.80;13.30;;;;;;;;;;5030562;28;20186;-74
2022/08/24 02:47:35;;;;;;;21.23;14.03;;;;;;;;;;5046764;28;20290;-74
2022/08/24 02:50:08;;;;;;;20.33;14.43;;;;;;;;;;5048909;28;20198;-74
2022/08/24 02:52:41;;;;;;;22.90;13.63;;;;;;;;;;5049115;28;20745;-74
2022/08/24 02:55:15;;;;;;;20.13;13.60;;;;;;;;;;5048145;28;20267;-74
2022/08/24 02:57:49;;;;;;;17.33;13.50;;;;;;;;;;5046593;28;20272;-74
2022/08/24 03:00:38;;;;;;;21.03;14.23;;;;;;;;;;5046764;28;20187;-74
2022/08/24 03:03:06;;;;;;;22.80;13.37;;;;;;;;;;5048843;28;20194;-74
2022/08/24 03:05:34;;;;;;;22.37;13.33;;;;;;;;;;5021809;28;20543;-74
2022/08/24 03:08:03;;;;;;;20.20;13.83;;;;;;;;;;5047224;28;20197;-74
2022/08/24 03:10:33;;;;;;;20.50;14.50;;;;;;;;;;5030793;28;20197;-74
2022/08/24 03:13:02;;;;;;;19.80;12.93;;;;;;;;;;5047647;28;20252;-73
2022/08/24 03:15:29;;;;;;;17.10;13.30;;;;;;;;;;5028969;28;20215;-74
2022/08/24 03:17:56;;;;;;;15.17;11.90;;;;;;;;;;5014109;28;20193;-74
2022/08/24 03:20:25;;;;;;;23.57;13.40;;;;;;;;;;5047457;28;20681;-74
2022/08/24 03:22:52;;;;;;;19.33;12.67;;;;;;;;;;5026357;28;20194;-74
2022/08/24 03:25:20;;;;;;;17.07;13.40;;;;;;;;;;5048816;28;20206;-74
2022/08/24 03:27:47;;;;;;;16.97;13.40;;;;;;;;;;5030611;28;20203;-74
2022/08/24 03:30:16;;;;;;;16.63;12.27;;;;;;;;;;5047634;28;20291;-74
2022/08/24 03:32:48;;;;;;;14.63;12.43;;;;;;;;;;5049786;28;20195;-75
2022/08/24 03:35:15;;;;;;;16.03;13.07;;;;;;;;;;5048151;28;20314;-75
2022/08/24 03:37:42;;;;;;;15.23;11.90;;;;;;;;;;5031221;28;20763;-74
2022/08/24 03:40:10;;;;;;;17.60;12.50;;;;;;;;;;5030451;28;20206;-74
2022/08/24 03:42:49;;;;;;;19.77;12.00;;;;;;;;;;5032090;28;20198;-75
2022/08/24 03:45:17;;;;;;;19.00;11.83;;;;;;;;;;5031149;28;20190;-75
2022/08/24 03:47:44;;;;;;;17.13;11.53;;;;;;;;;;5018344;28;20237;-74
2022/08/24 03:50:14;;;;;;;15.97;11.43;;;;;;;;;;5051240;28;20297;-74
2022/08/24 03:52:50;;;;;;;17.43;11.33;;;;;;;;;;5034349;28;20285;-75
2022/08/24 03:55:16;;;;;;;18.00;12.00;;;;;;;;;;5033404;28;20230;-74
2022/08/24 03:57:45;;;;;;;18.30;11.20;;;;;;;;;;5059258;28;20229;-75
2022/08/24 04:00:14;;;;;;;16.00;11.00;;;;;;;;;;5034780;28;20217;-75
2022/08/24 04:02:47;;;;;;;17.03;11.27;;;;;;;;;;5034064;28;20274;-75
2022/08/24 04:05:18;;;;;;;20.63;11.73;;;;;;;;;;5032811;28;20191;-77
2022/08/24 04:07:46;;;;;;;15.63;11.47;;;;;;;;;;5042348;28;20206;-71
2022/08/24 04:10:13;;;;;;;15.50;10.93;;;;;;;;;;5009642;28;20547;-72
2022/08/24 04:12:41;;;;;;;17.67;10.90;;;;;;;;;;5046840;28;20310;-71
2022/08/24 04:15:09;;;;;;;19.53;10.97;;;;;;;;;;5038583;28;20718;-72
2022/08/24 04:17:37;;;;;;;19.00;11.07;;;;;;;;;;5023405;28;20288;-71
2022/08/24 04:20:05;;;;;;;16.20;10.53;;;;;;;;;;5041817;28;20328;-72
2022/08/24 04:22:35;;;;;;;19.47;10.80;;;;;;;;;;5028903;28;20630;-73
2022/08/24 04:25:04;;;;;;;15.80;10.77;;;;;;;;;;5029383;28;20202;-71
2022/08/24 04:27:37;;;;;;;17.00;11.90;;;;;;;;;;5027913;28;20244;-70
2022/08/24 04:30:05;;;;;;;19.00;11.70;;;;;;;;;;5024418;28;20191;-71
2022/08/24 04:32:46;;;;;;;17.67;11.63;;;;;;;;;;5011623;28;20198;-72
2022/08/24 04:35:14;;;;;;;20.23;13.00;;;;;;;;;;5040718;28;20226;-71
2022/08/24 04:37:41;;;;;;;17.77;11.07;;;;;;;;;;5027870;28;21095;-72
2022/08/24 04:40:09;;;;;;;18.70;12.07;;;;;;;;;;5026889;28;20207;-76
2022/08/24 04:42:43;;;;;;;22.73;11.60;;;;;;;;;;5011509;28;20255;-73
2022/08/24 04:45:10;;;;;;;22.23;12.33;;;;;;;;;;5042136;28;20196;-72
2022/08/24 04:47:37;;;;;;;19.83;12.10;;;;;;;;;;5028193;28;20269;-72
2022/08/24 04:50:04;;;;;;;16.57;12.13;;;;;;;;;;5028041;28;20199;-73
2022/08/24 04:52:32;;;;;;;21.67;12.27;;;;;;;;;;5045476;28;20202;-73
2022/08/24 04:55:00;;;;;;;17.90;11.77;;;;;;;;;;5043210;28;20230;-77
2022/08/24 04:57:27;;;;;;;19.60;11.97;;;;;;;;;;5024807;28;20602;-78
2022/08/24 04:59:56;;;;;;;21.00;12.17;;;;;;;;;;5009422;28;20322;-75
2022/08/24 05:02:24;;;;;;;22.57;12.37;;;;;;;;;;5041504;28;20949;-76
2022/08/24 05:04:57;;;;;;;21.77;12.33;;;;;;;;;;5024970;28;20197;-73
2022/08/24 05:07:43;;;;;;;19.00;11.87;;;;;;;;;;5038761;28;20175;-72
2022/08/24 05:10:13;;;;;;;21.73;12.80;;;;;;;;;;5024419;28;20198;-73
2022/08/24 05:12:40;;;;;;;22.90;11.87;;;;;;;;;;5009391;28;20194;-73
2022/08/24 05:15:11;;;;;;;18.20;10.73;;;;;;;;;;5007119;28;20569;-73
2022/08/24 05:17:42;;;;;;;20.20;10.73;;;;;;;;;;4989396;28;20314;-75
2022/08/24 05:20:19;;;;;;;18.37;10.90;;;;;;;;;;5005804;28;20195;-76
2022/08/24 05:22:46;;;;;;;18.43;10.60;;;;;;;;;;5005807;28;20223;-70
2022/08/24 05:25:13;;;;;;;19.17;10.13;;;;;;;;;;5006842;28;20295;-73
2022/08/24 05:27:40;;;;;;;15.03;10.20;;;;;;;;;;5022496;28;20245;-72
2022/08/24 05:30:07;;;;;;;17.77;10.90;;;;;;;;;;5011931;28;20195;-72
2022/08/24 05:32:34;;;;;;;15.00;9.87;;;;;;;;;;4989709;28;20971;-78
2022/08/24 05:35:03;;;;;;;16.30;9.87;;;;;;;;;;5023557;28;20219;-74
2022/08/24 05:37:33;;;;;;;15.67;10.20;;;;;;;;;;5024462;28;20215;-76
2022/08/24 05:40:13;;;;;;;21.80;10.27;;;;;;;;;;4992188;28;20318;-76
2022/08/24 05:42:43;;;;;;;19.20;10.17;;;;;;;;;;4990145;28;20765;-76
2022/08/24 05:45:11;;;;;;;18.03;10.00;;;;;;;;;;4988900;28;20209;-76
2022/08/24 05:47:38;;;;;;;17.27;9.13;;;;;;;;;;4974230;28;20198;-76
2022/08/24 05:50:25;;;;;;;13.87;9.17;;;;;;;;;;5006674;28;20202;-77
2022/08/24 05:52:52;;;;;;;18.87;8.80;;;;;;;;;;5022609;28;20647;-76
2022/08/24 05:55:19;;;;;;;15.77;9.10;;;;;;;;;;5005334;28;20314;-76
2022/08/24 05:57:46;;;;;;;14.40;8.07;;;;;;;;;;5023485;28;20188;-75
2022/08/24 06:00:18;;;;;;;13.83;7.83;;;;;;;;;;5017276;28;20196;-76
2022/08/24 06:02:51;;;;;;;18.03;8.10;;;;;;;;;;5030950;28;20192;-75
2022/08/24 06:05:20;;;;;;;17.33;8.10;;;;;;;;;;5020399;28;20196;-73
2022/08/24 06:07:48;;;;;;;13.43;8.13;;;;;;;;;;5031344;28;20666;-74
2022/08/24 06:10:18;;;;;;;12.07;7.93;;;;;;;;;;5020562;28;20557;-72
2022/08/24 06:13:04;;;;;;;14.07;7.80;;;;;;;;;;5021807;28;20199;-72
2022/08/24 06:15:31;;;;;;;15.00;8.03;;;;;;;;;;4993040;28;20230;-72
2022/08/24 06:17:58;;;;;;;17.43;8.23;;;;;;;;;;5003499;28;20276;-73
2022/08/24 06:20:27;;;;;;;15.83;7.53;;;;;;;;;;5008840;28;20191;-72
2022/08/24 06:22:56;;;;;;;14.40;7.03;;;;;;;;;;4977844;28;20874;-71
2022/08/24 06:28:17;;;;;;;16.27;7.40;;;;;;;;;;4970155;28;20195;-72
2022/08/24 06:30:44;;;;;;;15.20;8.40;;;;;;;;;;4987963;28;20613;-72
2022/08/24 06:33:17;;;;;;;14.57;7.53;;;;;;;;;;4988220;28;20200;-71
2022/08/24 06:35:47;;;;;;;13.13;6.87;;;;;;;;;;5010002;28;20313;-72
2022/08/24 06:38:14;;;;;;;15.37;7.30;;;;;;;;;;5018897;28;20191;-72
2022/08/24 06:40:46;;;;;;;16.53;7.17;;;;;;;;;;5020635;28;20253;-77
2022/08/24 06:43:13;;;;;;;13.83;6.77;;;;;;;;;;5020842;28;20188;-71
2022/08/24 06:45:49;;;;;;;19.20;6.73;;;;;;;;;;5020032;28;20191;-70
2022/08/24 06:48:20;;;;;;;13.37;6.23;;;;;;;;;;4988758;28;20222;-71
2022/08/24 06:50:48;;;;;;;11.63;5.90;;;;;;;;;;4988220;28;20888;-69
2022/08/24 06:53:15;;;;;;;15.30;6.10;;;;;;;;;;5022995;28;20194;-69
2022/08/24 06:55:45;;;;;;;14.77;6.53;;;;;;;;;;4989487;28;20226;-71
2022/08/24 06:58:12;;;;;;;11.33;5.70;;;;;;;;;;5021004;28;20194;-69
2022/08/24 07:00:40;;;;;;;12.30;5.90;;;;;;;;;;5005177;28;20886;-69
2022/08/24 07:03:07;;;;;;;13.47;5.50;;;;;;;;;;5011968;28;20696;-69
2022/08/24 07:05:38;;;;;;;10.97;5.00;;;;;;;;;;4991371;28;20615;-68
2022/08/24 07:08:32;;;;;;;12.70;5.43;;;;;;;;;;4990998;28;20280;-70
2022/08/24 07:10:59;;;;;;;10.20;4.77;;;;;;;;;;5022640;28;20560;-68
2022/08/24 07:13:26;;;;;;;12.93;5.77;;;;;;;;;;5008808;28;20230;-73
2022/08/24 07:15:53;;;;;;;9.27;5.30;;;;;;;;;;5009565;28;20234;-70
2022/08/24 07:18:20;;;;;;;10.60;5.57;;;;;;;;;;5046771;28;20803;-70
2022/08/24 07:20:49;;;;;;;11.33;5.33;;;;;;;;;;5024514;28;20198;-70
2022/08/24 07:23:45;;;;;;;10.80;5.17;;;;;;;;;;5026911;28;20202;-71
2022/08/24 07:26:33;;;;;;;14.17;6.13;;;;;;;;;;5024233;28;20857;-72
2022/08/24 07:29:05;;;;;;;16.87;5.80;;;;;;;;;;5026292;28;20304;-73
2022/08/24 07:31:50;;;;;;;10.23;5.73;;;;;;;;;;5041851;28;20216;-71
2022/08/24 07:34:32;;;;;;;15.03;6.13;;;;;;;;;;5039105;28;20361;-71
2022/08/24 07:37:00;;;;;;;15.70;6.13;;;;;;;;;;5008838;28;20226;-73
2022/08/24 07:39:27;;;;;;;14.00;5.87;;;;;;;;;;5042569;28;20191;-69
2022/08/24 07:41:56;;;;;;;20.40;6.47;;;;;;;;;;5034019;28;20225;-69
2022/08/24 07:44:38;;;;;;;13.80;5.13;;;;;;;;;;5042380;28;20201;-69
2022/08/24 07:47:06;;;;;;;10.97;5.20;;;;;;;;;;5048733;28;20201;-70
2022/08/24 07:49:55;;;;;;;14.03;5.40;;;;;;;;;;5026336;28;20195;-68
2022/08/24 07:52:22;;;;;;;15.07;5.63;;;;;;;;;;5026467;28;20206;-68
2022/08/24 07:54:49;;;;;;;20.20;6.20;;;;;;;;;;5025492;28;20218;-68
2022/08/24 07:57:20;;;;;;;15.20;6.50;;;;;;;;;;5026556;28;20657;-68
2022/08/24 07:59:48;;;;;;;15.67;5.93;;;;;;;;;;5034323;28;21168;-70
2022/08/24 08:02:17;;;;;;;11.47;5.27;;;;;;;;;;5040833;28;20180;-73
2022/08/24 08:04:48;;;;;;;15.87;5.93;;;;;;;;;;5045597;28;20203;-70
2022/08/24 08:07:20;;;;;;;12.93;6.47;;;;;;;;;;5043947;28;20373;-69
2022/08/24 08:10:22;;;;;;;15.67;6.93;;;;;;;;;;5032910;28;20232;-72
2022/08/24 08:13:05;;;;;;;10.73;5.57;;;;;;;;;;5024549;28;20227;-69
2022/08/24 08:15:32;;;;;;;15.53;6.50;;;;;;;;;;5041787;28;20215;-71
2022/08/24 08:18:04;;;;;;;10.20;5.50;;;;;;;;;;5000556;28;20239;-70
2022/08/24 08:20:34;;;;;;;13.37;5.60;;;;;;;;;;5040649;28;20200;-72
2022/08/24 08:26:18;;;;;;;10.63;5.23;;;;;;;;;;5039425;28;20219;-75
2022/08/24 08:29:15;;;;;;;10.47;5.50;;;;;;;;;;5040297;28;20177;-75
2022/08/24 08:31:42;;;;;;;14.57;5.57;;;;;;;;;;5005664;28;20202;-73
2022/08/24 08:34:10;;;;;;;13.30;6.03;;;;;;;;;;5015791;28;20238;-72
2022/08/24 08:36:42;;;;;;;18.13;5.87;;;;;;;;;;5041164;28;20249;-72
2022/08/24 08:39:11;;;;;;;12.43;5.90;;;;;;;;;;5009544;28;20727;-70
2022/08/24 08:41:41;;;;;;;12.97;5.67;;;;;;;;;;5055176;28;20197;-71
2022/08/24 08:44:36;;;;;;;16.67;5.73;;;;;;;;;;5023250;28;20760;-73
2022/08/24 08:47:21;;;;;;;14.43;6.87;;;;;;;;;;5038451;28;20191;-76
2022/08/24 08:50:06;;;;;;;12.30;5.83;;;;;;;;;;5040557;28;20187;-73
2022/08/24 08:52:55;;;;;;;19.20;6.40;;;;;;;;;;5021466;28;20230;-73
2022/08/24 08:55:29;;;;;;;12.73;5.47;;;;;;;;;;5023026;28;20220;-74
2022/08/24 08:58:00;;;;;;;18.03;5.63;;;;;;;;;;5024383;28;20198;-75
2022/08/24 09:00:53;;;;;;;11.20;5.20;;;;;;;;;;5023973;28;20223;-74
2022/08/24 09:03:40;;;;;;;16.37;5.83;;;;;;;;;;5009132;28;20279;-75
2022/08/24 09:06:46;;;;;;;13.33;5.60;;;;;;;;;;4978071;28;20212;-73
2022/08/24 09:09:45;;;;;;;13.37;5.00;;;;;;;;;;5040467;28;20187;-73
2022/08/24 09:12:20;;;;;;;12.50;5.00;;;;;;;;;;5048281;28;20228;-75
2022/08/24 09:14:54;;;;;;;10.40;5.17;;;;;;;;;;5016517;28;20222;-74
2022/08/24 09:17:22;;;;;;;14.30;6.17;;;;;;;;;;5008213;28;20275;-75
2022/08/24 09:19:55;;;;;;;11.00;5.73;;;;;;;;;;5025149;28;20191;-75
2022/08/24 09:22:23;;;;;;;11.87;5.80;;;;;;;;;;5028115;28;20195;-75
2022/08/24 09:24:53;;;;;;;13.73;5.77;;;;;;;;;;5011004;28;20219;-73
2022/08/24 09:27:52;;;;;;;10.70;4.47;;;;;;;;;;4995894;28;20191;-73
2022/08/24 09:30:24;;;;;;;7.20;4.50;;;;;;;;;;5032570;28;20203;-74
2022/08/24 09:32:56;;;;;;;8.00;4.50;;;;;;;;;;5018517;28;20553;-73
2022/08/24 09:35:54;;;;;;;13.00;4.83;;;;;;;;;;5012468;28;20226;-73
2022/08/24 09:38:40;;;;;;;10.30;4.03;;;;;;;;;;5020759;28;20239;-74
2022/08/24 09:41:25;;;;;;;13.13;4.30;;;;;;;;;;5027765;28;20233;-74
2022/08/24 09:44:06;;;;;;;14.97;4.87;;;;;;;;;;5028881;28;20188;-73
2022/08/24 09:46:39;;;;;;;10.80;4.27;;;;;;;;;;5011817;28;20726;-73
2022/08/24 09:49:15;;;;;;;12.00;4.80;;;;;;;;;;5010516;28;20224;-74
2022/08/24 09:52:01;;;;;;;10.30;4.77;;;;;;;;;;5028333;28;20199;-74
2022/08/24 09:54:40;;;;;;;12.73;5.00;;;;;;;;;;5019091;28;20238;-74
2022/08/24 09:57:24;;;;;;;10.60;4.53;;;;;;;;;;5032435;28;20286;-74
2022/08/24 10:00:18;;;;;;;15.43;4.67;;;;;;;;;;5027159;28;20187;-73
2022/08/24 10:02:45;;;;;;;11.37;5.03;;;;;;;;;;5024487;28;20195;-74
2022/08/24 10:05:31;;;;;;;14.67;4.60;;;;;;;;;;5027599;28;20191;-74
2022/08/24 10:08:04;;;;;;;7.10;4.70;;;;;;;;;;5026466;28;20227;-74
2022/08/24 10:10:38;;;;;;;11.87;4.80;;;;;;;;;;5013639;28;20219;-75
2022/08/24 10:13:41;;;;;;;11.87;4.37;;;;;;;;;;5026406;28;20555;-74
2022/08/24 10:16:15;;;;;;;14.37;4.53;;;;;;;;;;4964491;28;20225;-73
2022/08/24 10:18:45;;;;;;;9.67;3.97;;;;;;;;;;5020519;28;20227;-73
2022/08/24 10:21:31;;;;;;;12.47;4.10;;;;;;;;;;5026732;28;20206;-73
2022/08/24 10:24:15;;;;;;;10.47;4.67;;;;;;;;;;5006919;28;20678;-73
2022/08/24 10:27:08;;;;;;;9.40;4.50;;;;;;;;;;4992202;28;20278;-73
2022/08/24 10:29:38;;;;;;;10.57;4.33;;;;;;;;;;5009875;28;20191;-73
2022/08/24 10:32:12;;;;;;;7.87;4.30;;;;;;;;;;5027403;28;20701;-73
2022/08/24 10:35:01;;;;;;;9.00;4.13;;;;;;;;;;5011081;28;20208;-73
2022/08/24 10:39:39;;;;;;;9.43;4.57;;;;;;;;;;5005192;28;20590;-73
2022/08/24 10:40:50;;;;;;;17.00;5.20;;;;;;;;;;5007876;28;20187;-72
2022/08/24 10:43:33;;;;;;;8.00;4.40;;;;;;;;;;5025656;28;20206;-73
2022/08/24 10:46:00;;;;;;;9.83;4.60;;;;;;;;;;5027101;28;20203;-72
2022/08/24 10:48:30;;;;;;;11.50;4.40;;;;;;;;;;5026956;28;20285;-73
2022/08/24 10:51:09;;;;;;;10.87;4.90;;;;;;;;;;5027219;28;20226;-73
2022/08/24 10:53:36;;;;;;;11.90;4.83;;;;;;;;;;5009569;28;20606;-73
2022/08/24 10:56:13;;;;;;;11.43;4.73;;;;;;;;;;5009482;28;20307;-73
2022/08/24 10:58:42;;;;;;;14.47;4.40;;;;;;;;;;5025571;28;20552;-73
2022/08/24 11:01:13;;;;;;;10.90;4.40;;;;;;;;;;5024823;28;20187;-73
2022/08/24 11:03:47;;;;;;;10.20;4.50;;;;;;;;;;5025230;28;20655;-73
2022/08/24 11:06:16;;;;;;;8.93;4.40;;;;;;;;;;5009278;28;20567;-73
2022/08/24 11:09:17;;;;;;;8.80;4.30;;;;;;;;;;5025121;28;20804;-73
2022/08/24 11:11:47;;;;;;;8.57;4.50;;;;;;;;;;5008400;28;20338;-73
2022/08/24 11:14:29;;;;;;;15.67;5.07;;;;;;;;;;5021389;28;20215;-73
2022/08/24 11:17:14;;;;;;;13.77;4.83;;;;;;;;;;5044952;28;20269;-73
2022/08/24 11:19:42;;;;;;;13.77;5.50;;;;;;;;;;5029295;28;20234;-71
2022/08/24 11:22:27;;;;;;;17.80;5.67;;;;;;;;;;5031242;28;20662;-73
2022/08/24 11:25:17;;;;;;;14.97;5.03;;;;;;;;;;5046091;28;20518;-73
2022/08/24 11:27:46;;;;;;;14.37;4.83;;;;;;;;;;5035221;28;20186;-73
2022/08/24 11:30:18;;;;;;;12.70;5.10;;;;;;;;;;5046479;28;20318;-73
2022/08/24 11:32:47;;;;;;;10.57;4.83;;;;;;;;;;5033263;28;20248;-73
2022/08/24 11:35:35;;;;;;;11.70;5.23;;;;;;;;;;5026711;28;20194;-74
2022/08/24 11:38:04;;;;;;;11.47;4.73;;;;;;;;;;5046804;28;20252;-73
2022/08/24 11:40:33;;;;;;;11.83;4.53;;;;;;;;;;5045703;28;20194;-73
2022/08/24 11:43:12;;;;;;;14.87;4.77;;;;;;;;;;5046411;28;20194;-72
2022/08/24 11:45:52;;;;;;;11.40;5.10;;;;;;;;;;5044687;28;20201;-73
2022/08/24 11:48:25;;;;;;;10.53;5.20;;;;;;;;;;4996194;28;20207;-73
2022/08/24 11:50:58;;;;;;;11.77;4.20;;;;;;;;;;5035382;28;20206;-73
2022/08/24 11:53:27;;;;;;;15.73;5.10;;;;;;;;;;5038866;28;20726;-73
2022/08/24 11:56:07;;;;;;;12.67;4.60;;;;;;;;;;5046382;28;20280;-73
2022/08/24 11:58:50;;;;;;;7.30;3.90;;;;;;;;;;5012960;28;20197;-73
2022/08/24 12:01:19;;;;;;;10.27;4.33;;;;;;;;;;5043986;28;20187;-73
2022/08/24 12:04:05;;;;;;;10.87;5.13;;;;;;;;;;5007824;28;20551;-73
2022/08/24 12:06:47;;;;;;;12.47;5.00;;;;;;;;;;5048296;28;20209;-73
2022/08/24 12:09:27;;;;;;;9.37;4.20;;;;;;;;;;5050709;28;20189;-73
2022/08/24 12:12:01;;;;;;;10.63;4.00;;;;;;;;;;5033022;28;20213;-72
2022/08/24 12:14:47;;;;;;;9.07;3.93;;;;;;;;;;5049448;28;20230;-72
2022/08/24 12:17:25;;;;;;;12.27;4.23;;;;;;;;;;5050756;28;20216;-71
2022/08/24 12:19:53;;;;;;;10.67;4.00;;;;;;;;;;5049523;28;20191;-74
2022/08/24 12:22:21;;;;;;;11.83;4.33;;;;;;;;;;5032346;28;20241;-74
2022/08/24 12:24:50;;;;;;;13.80;5.03;;;;;;;;;;5049579;28;20191;-72
2022/08/24 12:27:33;;;;;;;9.93;4.03;;;;;;;;;;5032763;28;20191;-70
2022/08/24 12:30:03;;;;;;;9.73;4.20;;;;;;;;;;5032711;28;20694;-70
2022/08/24 12:32:36;;;;;;;10.87;4.70;;;;;;;;;;5032707;28;20198;-70
2022/08/24 12:35:22;;;;;;;10.47;4.33;;;;;;;;;;5025420;28;20535;-70
2022/08/24 12:37:51;;;;;;;14.20;4.13;;;;;;;;;;5033051;28;20219;-70
2022/08/24 12:40:35;;;;;;;11.47;4.53;;;;;;;;;;5035213;28;20546;-70
2022/08/24 12:43:11;;;;;;;6.87;3.60;;;;;;;;;;5019646;28;20953;-73
2022/08/24 12:46:00;;;;;;;14.00;4.63;;;;;;;;;;5032888;28;20174;-71
2022/08/24 12:48:32;;;;;;;9.53;4.37;;;;;;;;;;5023813;28;20202;-72
2022/08/24 12:51:00;;;;;;;10.60;4.13;;;;;;;;;;5020222;28;20686;-73
2022/08/24 12:53:43;;;;;;;10.43;4.00;;;;;;;;;;5048721;28;20195;-72
2022/08/24 12:56:17;;;;;;;8.83;4.00;;;;;;;;;;5033445;28;20689;-73
2022/08/24 12:58:44;;;;;;;9.23;3.97;;;;;;;;;;5050338;28;20270;-72
2022/08/24 13:01:21;;;;;;;7.67;3.63;;;;;;;;;;5049629;28;20933;-72
2022/08/24 13:04:07;;;;;;;6.90;3.20;;;;;;;;;;5024113;28;20314;-72
2022/08/24 13:06:41;;;;;;;9.00;3.90;;;;;;;;;;5031683;28;20200;-72
2022/08/24 13:09:11;;;;;;;6.80;3.60;;;;;;;;;;5026430;28;20224;-73
2022/08/24 13:11:38;;;;;;;8.37;3.30;;;;;;;;;;5013230;28;20578;-73
2022/08/24 13:14:14;;;;;;;7.80;3.27;;;;;;;;;;5047894;28;20227;-74
2022/08/24 13:16:56;;;;;;;9.97;3.60;;;;;;;;;;5050008;28;20203;-74
2022/08/24 13:19:27;;;;;;;9.57;3.20;;;;;;;;;;5047244;28;20197;-72
2022/08/24 13:22:13;;;;;;;7.40;3.60;;;;;;;;;;5034277;28;20237;-73
2022/08/24 13:25:03;;;;;;;8.90;3.30;;;;;;;;;;5048431;28;20271;-72
2022/08/24 13:27:36;;;;;;;8.70;3.50;;;;;;;;;;5009811;28;20203;-72
2022/08/24 13:30:04;;;;;;;9.83;3.50;;;;;;;;;;5049392;28;20192;-72
2022/08/24 13:32:38;;;;;;;10.67;3.73;;;;;;;;;;5015719;28;20206;-72
2022/08/24 13:35:23;;;;;;;7.27;3.00;;;;;;;;;;5029871;28;20226;-73
2022/08/24 13:38:09;;;;;;;6.30;3.17;;;;;;;;;;5049888;28;20214;-72
2022/08/24 13:40:41;;;;;;;10.23;3.40;;;;;;;;;;5048002;28;20221;-72
2022/08/24 13:43:32;;;;;;;10.60;3.57;;;;;;;;;;5034119;28;20179;-73
2022/08/24 13:46:18;;;;;;;8.10;3.30;;;;;;;;;;5048061;28;20190;-72
2022/08/24 13:49:21;;;;;;;12.17;3.47;;;;;;;;;;5023961;28;20258;-74
2022/08/24 13:52:07;;;;;;;9.17;3.40;;;;;;;;;;5049024;28;20179;-72
2022/08/24 13:54:40;;;;;;;6.80;3.07;;;;;;;;;;5046736;28;20198;-72
2022/08/24 13:57:29;;;;;;;9.70;3.70;;;;;;;;;;5049044;28;20221;-72
2022/08/24 13:59:57;;;;;;;7.07;3.20;;;;;;;;;;5031492;28;20187;-72
2022/08/24 14:02:43;;;;;;;7.03;2.90;;;;;;;;;;5049005;28;20266;-73
2022/08/24 14:05:30;;;;;;;10.27;2.70;;;;;;;;;;5049095;28;20193;-72
2022/08/24 14:08:12;;;;;;;9.57;3.43;;;;;;;;;;5049317;28;20722;-72
2022/08/24 14:10:42;;;;;;;9.67;3.23;;;;;;;;;;5047749;28;20195;-73
2022/08/24 14:13:32;;;;;;;5.23;2.70;;;;;;;;;;5031060;28;20186;-73
2022/08/24 14:19:18;;;;;;;6.70;2.60;;;;;;;;;;5043072;28;20735;-74
2022/08/24 14:21:49;;;;;;;8.23;2.83;;;;;;;;;;5024611;28;21189;-72
2022/08/24 14:24:36;;;;;;;7.30;2.70;;;;;;;;;;5039409;28;20245;-70
2022/08/24 14:27:09;;;;;;;7.60;2.60;;;;;;;;;;5036658;28;20202;-70
2022/08/24 14:29:39;;;;;;;9.77;3.03;;;;;;;;;;5031659;28;20187;-73
2022/08/24 14:32:06;;;;;;;10.83;3.20;;;;;;;;;;5035569;28;20263;-72
2022/08/24 14:34:41;;;;;;;7.83;2.73;;;;;;;;;;5020765;28;20193;-72
2022/08/24 14:37:51;;;;;;;7.13;2.80;;;;;;;;;;5036335;28;20215;-72
2022/08/24 14:40:22;;;;;;;9.80;2.73;;;;;;;;;;5037092;28;20244;-69
2022/08/24 14:42:54;;;;;;;6.63;2.70;;;;;;;;;;5029772;28;20599;-71
2022/08/24 14:45:40;;;;;;;5.37;2.67;;;;;;;;;;5039205;28;20601;-69
2022/08/24 14:48:10;;;;;;;7.10;2.73;;;;;;;;;;5038816;28;20202;-71
2022/08/24 14:50:39;;;;;;;7.47;3.30;;;;;;;;;;5039996;28;20609;-71
2022/08/24 14:53:18;;;;;;;10.03;3.30;;;;;;;;;;5035593;28;20287;-71
2022/08/24 14:55:53;;;;;;;8.80;2.70;;;;;;;;;;5040810;28;20187;-71
2022/08/24 14:58:35;;;;;;;7.87;3.07;;;;;;;;;;5037438;28;20909;-71
2022/08/24 15:01:10;;;;;;;5.57;3.13;;;;;;;;;;5042007;28;20723;-71
2022/08/24 15:03:46;;;;;;;9.40;3.53;;;;;;;;;;5020934;28;20202;-70
2022/08/24 15:06:22;;;;;;;7.27;3.00;;;;;;;;;;5037533;28;20273;-70
2022/08/24 15:09:03;;;;;;;5.13;2.80;;;;;;;;;;5018720;28;20190;-69
2022/08/24 15:11:30;;;;;;;8.60;3.07;;;;;;;;;;5037081;28;21004;-70
2022/08/24 15:13:57;;;;;;;9.53;3.17;;;;;;;;;;5022546;28;20237;-69
2022/08/24 15:16:34;;;;;;;9.93;3.60;;;;;;;;;;5038930;28;20720;-70
2022/08/24 15:19:06;;;;;;;6.13;3.20;;;;;;;;;;5038870;28;20190;-68
2022/08/24 15:21:36;;;;;;;6.50;3.03;;;;;;;;;;5035667;28;20214;-69